createdAt,value
2022-12-23T00:00:45.344Z,83.98
2022-12-23T00:03:12.762Z,84.12
2022-12-23T00:05:40.230Z,84.11
2022-12-23T00:08:08.200Z,84.18
2022-12-23T00:10:38.695Z,84.13
2022-12-23T00:13:24.789Z,83.98
2022-12-23T00:15:51.855Z,84.19
2022-12-23T00:18:18.881Z,84.52
2022-12-23T00:20:45.932Z,84.19
2022-12-23T00:23:13.042Z,84.47
2022-12-23T00:25:43.836Z,84.63
2022-12-23T00:28:16.297Z,85.01
2022-12-23T00:30:53.229Z,85.60
2022-12-23T00:33:25.021Z,85.63
2022-12-23T00:35:52.376Z,85.29
2022-12-23T00:38:40.682Z,85.56
2022-12-23T00:41:35.047Z,85.80
2022-12-23T00:44:03.263Z,85.84
2022-12-23T00:46:30.503Z,86.22
2022-12-23T00:49:16.570Z,86.49
2022-12-23T00:51:43.620Z,86.29
2022-12-23T00:54:10.707Z,86.63
2022-12-23T00:56:37.942Z,86.42
2022-12-23T00:59:05.092Z,86.49
2022-12-23T01:01:50.767Z,86.29
2022-12-23T01:04:37.503Z,86.27
2022-12-23T01:07:05.045Z,86.14
2022-12-23T01:09:32.638Z,86.16
2022-12-23T01:11:59.846Z,86.24
2022-12-23T01:14:27.071Z,86.13
2022-12-23T01:16:54.237Z,86.44
2022-12-23T01:19:21.385Z,86.45
2022-12-23T01:21:48.694Z,86.38
2022-12-23T01:24:15.828Z,86.62
2022-12-23T01:26:42.913Z,86.74
2022-12-23T01:29:10.049Z,86.91
2022-12-23T01:31:37.234Z,86.72
2022-12-23T01:34:04.344Z,86.86
2022-12-23T01:36:31.423Z,86.78
2022-12-23T01:38:58.483Z,86.94
2022-12-23T01:41:46.211Z,86.86
2022-12-23T01:44:50.770Z,87.27
2022-12-23T01:47:24.009Z,87.47
2022-12-23T01:49:55.568Z,87.55
2022-12-23T01:52:22.781Z,87.77
2022-12-23T01:54:49.885Z,87.58
2022-12-23T01:57:16.923Z,87.75
2022-12-23T02:00:03.237Z,87.75
2022-12-23T02:02:49.322Z,88.15
2022-12-23T02:05:17.098Z,87.92
2022-12-23T02:08:02.988Z,88.54
2022-12-23T02:10:40.205Z,88.19
2022-12-23T02:13:16.477Z,88.76
2022-12-23T02:16:06.599Z,88.61
2022-12-23T02:18:59.022Z,88.71
2022-12-23T02:21:33.684Z,88.42
2022-12-23T02:25:17.930Z,88.50
2022-12-23T02:28:08.998Z,88.79
2022-12-23T02:31:10.653Z,88.91
2022-12-23T02:33:51.517Z,88.83
2022-12-23T02:36:28.473Z,88.61
2022-12-23T02:39:03.899Z,88.66
2022-12-23T02:41:40.524Z,88.88
2022-12-23T02:44:21.157Z,88.80
2022-12-23T02:46:57.152Z,88.60
2022-12-23T02:49:30.737Z,88.82
2022-12-23T02:51:59.160Z,88.59
2022-12-23T02:54:31.658Z,88.57
2022-12-23T02:57:01.579Z,88.59
2022-12-23T02:59:34.269Z,88.33
2022-12-23T03:02:01.761Z,88.10
2022-12-23T03:04:29.037Z,88.18
2022-12-23T03:06:56.944Z,87.85
2022-12-23T03:09:45.081Z,87.49
2022-12-23T03:12:21.439Z,87.87
2022-12-23T03:15:11.966Z,87.32
2022-12-23T03:17:57.277Z,87.37
2022-12-23T03:20:28.543Z,87.10
2022-12-23T03:23:01.699Z,87.17
2022-12-23T03:25:53.831Z,86.95
2022-12-23T03:28:44.763Z,86.87
2022-12-23T03:31:16.592Z,86.81
2022-12-23T03:33:47.771Z,86.65
2022-12-23T03:36:24.614Z,86.29
2022-12-23T03:38:53.910Z,86.32
2022-12-23T03:41:31.304Z,85.78
2022-12-23T03:44:02.113Z,86.02
2022-12-23T03:46:52.290Z,86.35
2022-12-23T03:49:26.352Z,86.21
2022-12-23T03:52:02.375Z,85.83
2022-12-23T03:54:55.479Z,85.84
2022-12-23T03:57:22.953Z,85.55
2022-12-23T03:59:53.372Z,85.43
2022-12-23T04:02:25.128Z,85.34
2022-12-23T04:05:22.402Z,85.29
2022-12-23T04:08:03.287Z,85.22
2022-12-23T04:10:30.768Z,85.22
2022-12-23T04:12:58.115Z,84.88
2022-12-23T04:15:26.438Z,84.97
2022-12-23T04:17:55.041Z,84.65
2022-12-23T04:20:22.387Z,84.63
2022-12-23T04:22:49.529Z,85.09
2022-12-23T04:25:17.769Z,84.55
2022-12-23T04:27:44.849Z,84.46
2022-12-23T04:30:13.630Z,84.34
2022-12-23T04:32:41.642Z,84.35
2022-12-23T04:35:09.819Z,84.34
2022-12-23T04:37:36.917Z,84.36
2022-12-23T04:40:04.920Z,84.42
2022-12-23T04:42:31.967Z,84.25
2022-12-23T04:44:59.151Z,84.39
2022-12-23T04:47:26.631Z,83.89
2022-12-23T04:49:53.707Z,84.31
2022-12-23T04:52:20.927Z,84.20
2022-12-23T04:54:48.201Z,84.05
2022-12-23T04:57:15.758Z,83.87
2022-12-23T04:59:42.809Z,83.58
2022-12-23T05:02:10.460Z,83.81
2022-12-23T05:04:37.701Z,83.17
2022-12-23T05:07:05.057Z,83.47
2022-12-23T05:09:32.155Z,83.44
2022-12-23T05:11:59.239Z,83.32
2022-12-23T05:14:26.306Z,83.42
2022-12-23T05:16:53.377Z,83.62
2022-12-23T05:19:20.518Z,83.33
2022-12-23T05:21:47.580Z,83.33
2022-12-23T05:24:15.020Z,83.19
2022-12-23T05:26:47.627Z,83.56
2022-12-23T05:29:15.865Z,83.41
2022-12-23T05:31:43.081Z,83.23
2022-12-23T05:34:10.320Z,83.57
2022-12-23T05:36:37.417Z,83.18
2022-12-23T05:39:04.477Z,83.63
2022-12-23T05:41:31.717Z,83.29
2022-12-23T05:43:58.828Z,83.16
2022-12-23T05:46:26.966Z,83.35
2022-12-23T05:48:54.407Z,83.04
2022-12-23T05:51:21.527Z,83.46
2022-12-23T05:53:48.600Z,83.40
2022-12-23T05:56:15.728Z,83.54
2022-12-23T05:58:42.775Z,83.28
2022-12-23T06:01:09.825Z,83.62
2022-12-23T06:03:36.944Z,83.27
2022-12-23T06:06:04.219Z,83.54
2022-12-23T06:08:31.257Z,83.52
2022-12-23T06:10:59.913Z,83.63
2022-12-23T06:13:27.099Z,83.62
2022-12-23T06:15:54.202Z,83.95
2022-12-23T06:18:21.338Z,83.78
2022-12-23T06:20:48.405Z,83.69
2022-12-23T06:23:15.836Z,83.75
2022-12-23T06:25:43.062Z,83.78
2022-12-23T06:28:10.174Z,84.09
2022-12-23T06:30:37.206Z,84.00
2022-12-23T06:33:04.301Z,84.01
2022-12-23T06:35:31.376Z,84.08
2022-12-23T06:37:58.477Z,83.90
2022-12-23T06:40:25.564Z,84.00
2022-12-23T06:42:52.603Z,83.93
2022-12-23T06:45:19.722Z,84.22
2022-12-23T06:47:46.783Z,84.02
2022-12-23T06:50:13.830Z,84.12
2022-12-23T06:52:41.027Z,84.04
2022-12-23T06:55:08.146Z,84.14
2022-12-23T06:57:35.275Z,84.16
2022-12-23T07:00:06.586Z,84.13
2022-12-23T07:02:33.863Z,84.27
2022-12-23T07:05:01.005Z,84.40
2022-12-23T07:07:28.084Z,84.47
2022-12-23T07:09:55.153Z,83.89
2022-12-23T07:12:22.262Z,83.76
2022-12-23T07:14:49.346Z,83.92
2022-12-23T07:17:16.497Z,83.93
2022-12-23T07:19:43.668Z,83.68
2022-12-23T07:22:10.772Z,83.89
2022-12-23T07:24:37.965Z,84.01
2022-12-23T07:27:05.309Z,84.32
2022-12-23T07:29:32.346Z,84.90
2022-12-23T07:32:01.360Z,85.07
2022-12-23T07:34:28.527Z,85.55
2022-12-23T07:36:55.858Z,85.93
2022-12-23T07:39:22.922Z,85.86
2022-12-23T07:41:59.030Z,86.03
2022-12-23T07:44:36.308Z,86.07
2022-12-23T07:47:03.413Z,85.92
2022-12-23T07:49:30.504Z,86.07
2022-12-23T07:51:57.758Z,85.97
2022-12-23T07:54:24.928Z,86.20
2022-12-23T07:56:52.015Z,86.43
2022-12-23T07:59:19.163Z,86.52
2022-12-23T08:01:46.398Z,86.79
2022-12-23T08:04:13.548Z,86.85
2022-12-23T08:06:41.433Z,87.08
2022-12-23T08:09:09.587Z,87.19
2022-12-23T08:11:36.668Z,87.26
2022-12-23T08:14:03.706Z,87.65
2022-12-23T08:16:31.049Z,87.50
2022-12-23T08:18:58.160Z,87.31
2022-12-23T08:21:25.229Z,87.66
2022-12-23T08:23:52.355Z,87.45
2022-12-23T08:26:24.288Z,87.65
2022-12-23T08:28:53.565Z,87.67
2022-12-23T08:31:24.360Z,87.59
2022-12-23T08:33:54.227Z,87.70
2022-12-23T08:36:24.095Z,87.55
2022-12-23T08:38:53.059Z,87.53
2022-12-23T08:41:23.120Z,87.51
2022-12-23T08:43:50.468Z,87.18
2022-12-23T08:46:17.674Z,87.08
2022-12-23T08:48:49.139Z,86.98
2022-12-23T08:51:19.026Z,86.71
2022-12-23T08:53:46.894Z,86.63
2022-12-23T08:56:19.122Z,86.56
2022-12-23T08:58:48.305Z,86.23
2022-12-23T09:01:16.779Z,86.40
2022-12-23T09:03:44.643Z,86.16
2022-12-23T09:06:16.639Z,85.41
2022-12-23T09:08:43.870Z,84.97
2022-12-23T09:11:12.413Z,85.48
2022-12-23T09:13:39.716Z,85.14
2022-12-23T09:16:07.884Z,85.25
2022-12-23T09:18:35.330Z,85.07
2022-12-23T09:21:05.039Z,84.91
2022-12-23T09:23:32.648Z,84.67
2022-12-23T09:25:59.950Z,84.60
2022-12-23T09:28:27.050Z,84.78
2022-12-23T09:30:54.164Z,83.89
2022-12-23T09:33:21.230Z,83.87
2022-12-23T09:35:48.309Z,84.05
2022-12-23T09:38:15.642Z,83.61
2022-12-23T09:40:42.776Z,82.98
2022-12-23T09:43:27.851Z,83.47
2022-12-23T09:46:00.957Z,83.19
2022-12-23T09:48:33.991Z,83.20
2022-12-23T09:51:01.931Z,82.75
2022-12-23T09:53:43.582Z,82.34
2022-12-23T09:56:20.302Z,82.71
2022-12-23T09:59:10.726Z,82.75
2022-12-23T10:01:49.102Z,82.92
2022-12-23T10:04:22.048Z,81.92
2022-12-23T10:07:29.008Z,81.69
2022-12-23T10:09:57.900Z,81.09
2022-12-23T10:12:44.363Z,81.38
2022-12-23T10:15:37.379Z,81.13
2022-12-23T10:18:16.223Z,80.62
2022-12-23T10:20:48.236Z,80.39
2022-12-23T10:23:26.701Z,80.29
2022-12-23T10:25:53.782Z,80.61
2022-12-23T10:28:20.980Z,80.44
2022-12-23T10:31:30.567Z,80.65
2022-12-23T10:34:00.668Z,79.74
2022-12-23T10:36:35.625Z,79.33
2022-12-23T10:39:49.767Z,79.64
2022-12-23T10:42:19.464Z,79.64
2022-12-23T10:44:53.968Z,79.75
2022-12-23T10:47:45.228Z,79.67
2022-12-23T10:50:31.703Z,79.49
2022-12-23T10:53:01.478Z,79.80
2022-12-23T10:55:34.071Z,79.90
2022-12-23T10:58:12.253Z,79.85
2022-12-23T11:00:41.094Z,78.94
2022-12-23T11:03:28.067Z,79.09
2022-12-23T11:05:56.378Z,78.85
2022-12-23T11:08:24.523Z,78.02
2022-12-23T11:10:52.006Z,78.51
2022-12-23T11:13:46.012Z,78.62
2022-12-23T11:16:22.611Z,78.00
2022-12-23T11:18:56.406Z,78.17
2022-12-23T11:21:23.813Z,78.39
2022-12-23T11:24:15.440Z,78.04
2022-12-23T11:26:44.371Z,78.42
2022-12-23T11:29:18.113Z,78.29
2022-12-23T11:31:45.701Z,78.30
2022-12-23T11:34:21.076Z,78.34
2022-12-23T11:36:56.565Z,78.70
2022-12-23T11:39:29.607Z,78.62
2022-12-23T11:42:05.110Z,78.22
2022-12-23T11:44:36.058Z,77.89
2022-12-23T11:47:23.823Z,78.15
2022-12-23T11:49:55.037Z,78.13
2022-12-23T11:52:27.604Z,78.40
2022-12-23T11:55:02.387Z,77.74
2022-12-23T11:57:39.677Z,77.39
2022-12-23T12:00:18.122Z,77.69
2022-12-23T12:02:46.476Z,77.46
2022-12-23T12:05:18.306Z,77.61
2022-12-23T12:07:46.184Z,77.61
2022-12-23T12:10:21.091Z,77.77
2022-12-23T12:12:54.841Z,77.71
2022-12-23T12:15:31.688Z,77.61
2022-12-23T12:17:59.454Z,77.62
2022-12-23T12:20:37.536Z,77.98
2022-12-23T12:23:15.052Z,77.95
2022-12-23T12:25:58.592Z,77.76
2022-12-23T12:28:30.540Z,77.80
2022-12-23T12:31:02.239Z,77.89
2022-12-23T12:33:38.401Z,78.26
2022-12-23T12:36:22.555Z,77.92
2022-12-23T12:38:50.669Z,78.26
2022-12-23T12:41:40.227Z,77.66
2022-12-23T12:44:26.999Z,77.65
2022-12-23T12:46:58.784Z,77.96
2022-12-23T12:49:32.479Z,77.67
2022-12-23T12:52:09.978Z,78.26
2022-12-23T12:54:44.754Z,78.66
2022-12-23T12:57:15.415Z,77.88
2022-12-23T12:59:43.184Z,78.25
2022-12-23T13:02:34.291Z,77.84
2022-12-23T13:05:29.315Z,78.25
2022-12-23T13:08:14.600Z,78.22
2022-12-23T13:11:06.102Z,78.23
2022-12-23T13:14:03.321Z,78.52
2022-12-23T13:16:46.347Z,78.43
2022-12-23T13:19:48.076Z,78.09
2022-12-23T13:22:24.112Z,77.96
2022-12-23T13:25:00.297Z,78.31
2022-12-23T13:27:51.757Z,77.97
2022-12-23T13:30:21.524Z,78.42
2022-12-23T13:33:07.190Z,78.21
2022-12-23T13:35:49.480Z,78.31
2022-12-23T13:38:45.273Z,78.02
2022-12-23T13:41:15.721Z,78.43
2022-12-23T13:44:05.316Z,78.23
2022-12-23T13:46:49.912Z,78.51
2022-12-23T13:49:29.650Z,78.23
2022-12-23T13:52:05.823Z,77.92
2022-12-23T13:54:51.374Z,78.33
2022-12-23T13:57:36.790Z,77.92
2022-12-23T14:00:19.048Z,77.71
2022-12-23T14:02:53.073Z,77.65
2022-12-23T14:05:33.349Z,77.68
2022-12-23T14:08:03.074Z,77.57
2022-12-23T14:10:30.854Z,77.54
2022-12-23T14:13:01.496Z,77.64
2022-12-23T14:15:31.768Z,77.50
2022-12-23T14:18:30.759Z,77.40
2022-12-23T14:21:27.555Z,77.38
2022-12-23T14:24:25.856Z,77.31
2022-12-23T14:27:26.494Z,77.64
2022-12-23T14:30:32.364Z,77.50
2022-12-23T14:33:01.082Z,77.72
2022-12-23T14:35:33.369Z,77.65
2022-12-23T14:38:29.786Z,77.51
2022-12-23T14:41:19.208Z,77.57
2022-12-23T14:43:46.165Z,78.02
2022-12-23T14:46:34.966Z,78.09
2022-12-23T14:49:36.484Z,78.18
2022-12-23T14:51:50.893Z,78.23
2022-12-23T14:54:37.496Z,78.07
2022-12-23T14:57:08.215Z,78.10
2022-12-23T14:59:46.742Z,77.98
2022-12-23T15:02:22.145Z,78.16
2022-12-23T15:04:57.223Z,77.92
2022-12-23T15:07:35.743Z,77.88
2022-12-23T15:10:06.184Z,78.17
2022-12-23T15:12:38.960Z,78.17
2022-12-23T15:15:13.603Z,78.26
2022-12-23T15:17:40.864Z,78.03
2022-12-23T15:20:15.648Z,78.00
2022-12-23T15:22:44.723Z,78.01
2022-12-23T15:25:26.653Z,78.38
2022-12-23T15:28:01.248Z,78.43
2022-12-23T15:30:34.114Z,78.30
2022-12-23T15:33:27.883Z,78.32
2022-12-23T15:35:53.970Z,78.41
2022-12-23T15:38:22.424Z,78.68
2022-12-23T15:41:01.200Z,78.32
2022-12-23T15:43:28.439Z,78.46
2022-12-23T15:46:04.821Z,78.69
2022-12-23T15:48:32.703Z,78.48
2022-12-23T15:51:11.537Z,78.47
2022-12-23T15:53:40.918Z,78.62
2022-12-23T15:56:18.755Z,78.79
2022-12-23T15:58:45.917Z,78.83
2022-12-23T16:01:17.663Z,78.84
2022-12-23T16:03:50.674Z,78.53
2022-12-23T16:06:28.257Z,78.61
2022-12-23T16:08:57.478Z,78.54
2022-12-23T16:11:38.284Z,78.65
2022-12-23T16:14:25.949Z,78.83
2022-12-23T16:16:53.956Z,79.00
2022-12-23T16:19:38.338Z,79.12
2022-12-23T16:22:21.030Z,79.13
2022-12-23T16:25:11.474Z,79.24
2022-12-23T16:27:40.916Z,80.01
2022-12-23T16:30:13.226Z,80.40
2022-12-23T16:32:49.558Z,80.64
2022-12-23T16:35:36.115Z,81.25
2022-12-23T16:38:23.805Z,81.66
2022-12-23T16:40:53.632Z,82.01
2022-12-23T16:43:22.595Z,82.21
2022-12-23T16:45:52.590Z,82.29
2022-12-23T16:48:41.453Z,82.52
2022-12-23T16:51:12.557Z,82.84
2022-12-23T16:53:39.649Z,83.01
2022-12-23T16:56:11.901Z,83.83
2022-12-23T16:58:39.030Z,84.06
2022-12-23T17:01:06.289Z,84.64
2022-12-23T17:03:33.432Z,85.01
2022-12-23T17:06:00.702Z,85.36
2022-12-23T17:08:27.731Z,85.36
2022-12-23T17:10:56.080Z,85.65
2022-12-23T17:13:23.370Z,85.86
2022-12-23T17:15:50.527Z,85.81
2022-12-23T17:18:18.381Z,85.68
2022-12-23T17:20:46.557Z,85.81
2022-12-23T17:23:31.236Z,86.41
2022-12-23T17:25:58.804Z,86.37
2022-12-23T17:28:31.911Z,86.30
2022-12-23T17:30:59.396Z,86.13
2022-12-23T17:33:29.660Z,86.51
2022-12-23T17:35:56.922Z,86.63
2022-12-23T17:38:24.221Z,86.83
2022-12-23T17:40:51.348Z,87.02
2022-12-23T17:43:18.685Z,87.06
2022-12-23T17:45:45.814Z,86.82
2022-12-23T17:48:19.730Z,86.74
2022-12-23T17:50:48.020Z,86.73
2022-12-23T17:53:19.865Z,86.81
2022-12-23T17:55:47.014Z,86.63
2022-12-23T17:58:14.435Z,86.77
2022-12-23T18:00:41.703Z,86.90
2022-12-23T18:03:22.192Z,87.40
2022-12-23T18:05:51.140Z,87.88
2022-12-23T18:08:21.403Z,87.97
2022-12-23T18:10:48.547Z,87.86
2022-12-23T18:13:17.582Z,87.66
2022-12-23T18:15:45.162Z,88.46
2022-12-23T18:18:17.864Z,88.77
2022-12-23T18:20:49.389Z,89.32
2022-12-23T18:23:23.621Z,89.22
2022-12-23T18:25:50.775Z,89.51
2022-12-23T18:28:17.921Z,89.10
2022-12-23T18:30:45.149Z,89.23
2022-12-23T18:33:15.939Z,89.46
2022-12-23T18:35:50.276Z,89.91
2022-12-23T18:38:18.092Z,89.80
2022-12-23T18:40:45.544Z,89.93
2022-12-23T18:43:24.447Z,90.10
2022-12-23T18:45:53.487Z,89.62
2022-12-23T18:48:21.485Z,89.37
2022-12-23T18:50:48.851Z,89.82
2022-12-23T18:53:25.371Z,89.58
2022-12-23T18:55:53.634Z,89.88
2022-12-23T18:58:21.397Z,89.84
2022-12-23T19:00:49.600Z,90.11
2022-12-23T19:03:19.634Z,90.03
2022-12-23T19:05:46.939Z,90.02
2022-12-23T19:08:14.249Z,89.73
2022-12-23T19:10:41.817Z,90.09
2022-12-23T19:13:09.139Z,90.33
2022-12-23T19:15:36.553Z,90.18
2022-12-23T19:18:03.704Z,90.64
2022-12-23T19:20:31.180Z,91.06
2022-12-23T19:22:58.275Z,90.85
2022-12-23T19:25:25.421Z,90.93
2022-12-23T19:27:52.637Z,90.64
2022-12-23T19:30:19.691Z,90.50
2022-12-23T19:32:48.525Z,90.79
2022-12-23T19:35:15.581Z,90.61
2022-12-23T19:37:42.838Z,90.60
2022-12-23T19:40:10.607Z,90.51
2022-12-23T19:42:38.810Z,90.44
2022-12-23T19:45:07.535Z,90.73
2022-12-23T19:47:34.690Z,90.53
2022-12-23T19:50:01.900Z,90.98
2022-12-23T19:52:28.937Z,91.02
2022-12-23T19:54:56.173Z,91.19
2022-12-23T19:57:23.574Z,91.35
2022-12-23T19:59:50.726Z,91.24
2022-12-23T20:02:19.972Z,90.86
2022-12-23T20:04:47.238Z,90.58
2022-12-23T20:07:14.270Z,90.92
2022-12-23T20:09:41.383Z,90.93
2022-12-23T20:12:08.494Z,90.96
2022-12-23T20:14:35.592Z,91.28
2022-12-23T20:17:02.701Z,91.04
2022-12-23T20:19:29.779Z,91.02
2022-12-23T20:21:58.163Z,91.79
2022-12-23T20:24:25.227Z,91.71
2022-12-23T20:26:52.371Z,92.17
2022-12-23T20:29:19.463Z,92.35
2022-12-23T20:31:46.587Z,92.57
2022-12-23T20:34:15.624Z,92.18
2022-12-23T20:36:43.328Z,92.04
2022-12-23T20:39:10.487Z,91.75
2022-12-23T20:41:39.190Z,91.27
2022-12-23T20:46:53.409Z,91.65
2022-12-23T20:49:20.557Z,91.77
2022-12-23T20:51:47.596Z,91.38
2022-12-23T20:54:14.636Z,91.33
2022-12-23T20:56:41.677Z,90.98
2022-12-23T20:59:08.738Z,90.62
2022-12-23T21:01:40.406Z,90.50
2022-12-23T21:04:14.101Z,90.75
2022-12-23T21:06:41.539Z,90.55
2022-12-23T21:09:11.562Z,90.18
2022-12-23T21:11:43.181Z,90.03
2022-12-23T21:14:11.106Z,90.15
2022-12-23T21:16:38.411Z,90.08
2022-12-23T21:19:06.850Z,89.57
2022-12-23T21:21:34.010Z,89.18
2022-12-23T21:24:04.777Z,89.04
2022-12-23T21:26:33.696Z,89.07
2022-12-23T21:29:02.275Z,88.76
2022-12-23T21:31:31.017Z,88.76
2022-12-23T21:33:58.463Z,88.46
2022-12-23T21:36:28.871Z,88.42
2022-12-23T21:38:56.068Z,88.21
2022-12-23T21:41:27.509Z,88.43
2022-12-23T21:43:56.656Z,87.86
2022-12-23T21:46:24.151Z,87.88
2022-12-23T21:48:51.429Z,87.85
2022-12-23T21:51:38.582Z,87.68
2022-12-23T21:54:07.984Z,87.67
2022-12-23T21:56:35.700Z,87.39
2022-12-23T21:59:08.643Z,87.31
2022-12-23T22:01:35.804Z,87.50
2022-12-23T22:04:03.151Z,87.50
2022-12-23T22:06:38.230Z,87.68
2022-12-23T22:09:06.739Z,87.60
2022-12-23T22:11:35.653Z,87.12
2022-12-23T22:14:04.418Z,87.38
2022-12-23T22:16:32.162Z,87.37
2022-12-23T22:19:00.451Z,87.10
2022-12-23T22:21:29.836Z,86.98
2022-12-23T22:23:57.569Z,86.96
2022-12-23T22:26:27.205Z,87.01
2022-12-23T22:28:55.316Z,87.19
2022-12-23T22:31:36.196Z,87.13
2022-12-23T22:34:04.493Z,86.98
2022-12-23T22:36:32.258Z,87.11
2022-12-23T22:39:02.563Z,86.76
2022-12-23T22:41:30.825Z,86.75
2022-12-23T22:43:58.713Z,86.62
2022-12-23T22:46:26.539Z,86.46
2022-12-23T22:48:54.285Z,86.37
2022-12-23T22:51:24.365Z,85.85
2022-12-23T22:53:52.013Z,85.57
2022-12-23T22:56:20.751Z,85.15
2022-12-23T22:58:48.651Z,85.05
2022-12-23T23:01:29.883Z,85.11
2022-12-23T23:03:58.641Z,84.90
2022-12-23T23:06:31.979Z,84.46
2022-12-23T23:08:59.690Z,83.50
2022-12-23T23:11:27.716Z,83.43
2022-12-23T23:13:55.762Z,83.13
2022-12-23T23:16:24.100Z,82.97
2022-12-23T23:18:52.500Z,82.33
2022-12-23T23:21:19.883Z,81.19
2022-12-23T23:23:47.053Z,81.37
2022-12-23T23:26:14.525Z,80.90
2022-12-23T23:28:42.312Z,80.59
2022-12-23T23:31:41.235Z,78.96
2022-12-23T23:33:57.913Z,78.93
2022-12-23T23:36:25.725Z,79.24
2022-12-23T23:38:53.030Z,78.31
2022-12-23T23:41:23.296Z,78.69
2022-12-23T23:43:51.985Z,78.65
2022-12-23T23:46:19.600Z,78.68
2022-12-23T23:48:46.895Z,77.67
2022-12-23T23:51:14.108Z,78.12
2022-12-23T23:53:41.284Z,78.14
2022-12-23T23:56:09.019Z,77.10
2022-12-23T23:58:36.830Z,77.50
